sensor_id;sensor_type;location;lat;lon;timestamp;pressure;altitude;pressure_sealevel;temperature;humidity
13612;BME280;6877;51.436;6.774;2023-07-31T00:01:37;100586.31;;;15.02;100.00
13612;BME280;6877;51.436;6.774;2023-07-31T00:04:09;100596.00;;;15.02;100.00
13612;BME280;6877;51.436;6.774;2023-07-31T00:06:35;100587.25;;;15.01;100.00
13612;BME280;6877;51.436;6.774;2023-07-31T00:09:02;100594.31;;;15.01;100.00
13612;BME280;6877;51.436;6.774;2023-07-31T00:11:28;100588.16;;;15.00;100.00
13612;BME280;6877;51.436;6.774;2023-07-31T00:13:55;100586.31;;;15.02;100.00
13612;BME280;6877;51.436;6.774;2023-07-31T00:16:21;100583.75;;;15.01;100.00
13612;BME280;6877;51.436;6.774;2023-07-31T00:18:48;100579.34;;;15.01;100.00
13612;BME280;6877;51.436;6.774;2023-07-31T00:21:14;100580.25;;;15.00;100.00
13612;BME280;6877;51.436;6.774;2023-07-31T00:23:46;100582.88;;;15.00;100.00
13612;BME280;6877;51.436;6.774;2023-07-31T00:26:12;100579.47;;;14.98;100.00
13612;BME280;6877;51.436;6.774;2023-07-31T00:28:44;100573.34;;;14.98;100.00
13612;BME280;6877;51.436;6.774;2023-07-31T00:31:13;100575.09;;;14.97;100.00
13612;BME280;6877;51.436;6.774;2023-07-31T00:33:44;100574.13;;;15.00;100.00
13612;BME280;6877;51.436;6.774;2023-07-31T00:36:16;100574.19;;;14.98;100.00
13612;BME280;6877;51.436;6.774;2023-07-31T00:38:49;100562.72;;;14.99;100.00
13612;BME280;6877;51.436;6.774;2023-07-31T00:41:15;100568.94;;;14.98;100.00
13612;BME280;6877;51.436;6.774;2023-07-31T00:43:46;100569.81;;;14.97;100.00
13612;BME280;6877;51.436;6.774;2023-07-31T00:46:13;100583.00;;;14.97;100.00
13612;BME280;6877;51.436;6.774;2023-07-31T00:48:44;100578.63;;;14.98;100.00
13612;BME280;6877;51.436;6.774;2023-07-31T00:51:11;100574.19;;;14.98;100.00
13612;BME280;6877;51.436;6.774;2023-07-31T00:53:43;100572.47;;;14.97;100.00
13612;BME280;6877;51.436;6.774;2023-07-31T00:56:10;100575.91;;;14.99;100.00
13612;BME280;6877;51.436;6.774;2023-07-31T00:58:37;100577.69;;;14.99;100.00
13612;BME280;6877;51.436;6.774;2023-07-31T01:01:03;100568.94;;;14.98;100.00
13612;BME280;6877;51.436;6.774;2023-07-31T01:03:30;100568.06;;;14.98;100.00
13612;BME280;6877;51.436;6.774;2023-07-31T01:06:06;100572.41;;;14.99;100.00
13612;BME280;6877;51.436;6.774;2023-07-31T01:08:44;100569.69;;;15.00;100.00
13612;BME280;6877;51.436;6.774;2023-07-31T01:11:29;100566.28;;;14.98;100.00
13612;BME280;6877;51.436;6.774;2023-07-31T01:14:01;100568.84;;;15.00;100.00
13612;BME280;6877;51.436;6.774;2023-07-31T01:16:28;100566.22;;;15.00;100.00
13612;BME280;6877;51.436;6.774;2023-07-31T01:18:59;100567.06;;;15.00;100.00
13612;BME280;6877;51.436;6.774;2023-07-31T01:24:28;100570.59;;;15.01;100.00
13612;BME280;6877;51.436;6.774;2023-07-31T01:32:17;100573.16;;;15.02;100.00
13612;BME280;6877;51.436;6.774;2023-07-31T01:34:44;100566.09;;;15.03;100.00
13612;BME280;6877;51.436;6.774;2023-07-31T01:37:12;100562.59;;;15.02;100.00
13612;BME280;6877;51.436;6.774;2023-07-31T01:39:38;100563.53;;;15.01;100.00
13612;BME280;6877;51.436;6.774;2023-07-31T01:42:10;100557.34;;;15.02;100.00
13612;BME280;6877;51.436;6.774;2023-07-31T01:44:36;100556.53;;;15.00;100.00
13612;BME280;6877;51.436;6.774;2023-07-31T01:47:07;100555.44;;;15.06;100.00
13612;BME280;6877;51.436;6.774;2023-07-31T01:49:34;100559.84;;;15.05;100.00
13612;BME280;6877;51.436;6.774;2023-07-31T01:52:00;100547.47;;;15.07;100.00
13612;BME280;6877;51.436;6.774;2023-07-31T01:54:32;100554.56;;;15.05;100.00
13612;BME280;6877;51.436;6.774;2023-07-31T01:56:59;100556.25;;;15.08;100.00
13612;BME280;6877;51.436;6.774;2023-07-31T01:59:30;100551.78;;;15.10;100.00
13612;BME280;6877;51.436;6.774;2023-07-31T02:01:57;100549.06;;;15.12;100.00
13612;BME280;6877;51.436;6.774;2023-07-31T02:04:23;100541.97;;;15.14;100.00
13612;BME280;6877;51.436;6.774;2023-07-31T02:06:55;100545.38;;;15.16;100.00
13612;BME280;6877;51.436;6.774;2023-07-31T02:09:26;100552.31;;;15.18;100.00
13612;BME280;6877;51.436;6.774;2023-07-31T02:11:52;100549.63;;;15.20;100.00
13612;BME280;6877;51.436;6.774;2023-07-31T02:14:19;100542.56;;;15.20;100.00
13612;BME280;6877;51.436;6.774;2023-07-31T02:16:45;100544.34;;;15.20;100.00
13612;BME280;6877;51.436;6.774;2023-07-31T02:19:12;100555.66;;;15.22;100.00
13612;BME280;6877;51.436;6.774;2023-07-31T02:21:38;100543.28;;;15.24;100.00
13612;BME280;6877;51.436;6.774;2023-07-31T02:24:10;100542.38;;;15.25;100.00
13612;BME280;6877;51.436;6.774;2023-07-31T02:26:36;100544.16;;;15.24;100.00
13612;BME280;6877;51.436;6.774;2023-07-31T02:29:03;100538.75;;;15.27;100.00
13612;BME280;6877;51.436;6.774;2023-07-31T02:31:34;100542.31;;;15.26;100.00
13612;BME280;6877;51.436;6.774;2023-07-31T02:34:01;100533.56;;;15.26;100.00
13612;BME280;6877;51.436;6.774;2023-07-31T02:36:32;100530.13;;;15.24;100.00
13612;BME280;6877;51.436;6.774;2023-07-31T02:38:58;100529.25;;;15.23;100.00
13612;BME280;6877;51.436;6.774;2023-07-31T02:41:25;100529.19;;;15.25;100.00
13612;BME280;6877;51.436;6.774;2023-07-31T02:43:51;100531.91;;;15.23;100.00
13612;BME280;6877;51.436;6.774;2023-07-31T02:46:23;100527.47;;;15.24;100.00
13612;BME280;6877;51.436;6.774;2023-07-31T02:48:51;100530.16;;;15.22;100.00
13612;BME280;6877;51.436;6.774;2023-07-31T02:51:17;100523.91;;;15.25;100.00
13612;BME280;6877;51.436;6.774;2023-07-31T02:53:44;100534.44;;;15.25;100.00
13612;BME280;6877;51.436;6.774;2023-07-31T02:56:10;100524.63;;;15.28;100.00
13612;BME280;6877;51.436;6.774;2023-07-31T02:58:37;100521.03;;;15.31;100.00
13612;BME280;6877;51.436;6.774;2023-07-31T03:01:03;100527.22;;;15.30;100.00
13612;BME280;6877;51.436;6.774;2023-07-31T03:03:35;100515.69;;;15.33;100.00
13612;BME280;6877;51.436;6.774;2023-07-31T03:06:01;100520.03;;;15.34;100.00
13612;BME280;6877;51.436;6.774;2023-07-31T03:08:33;100519.09;;;15.35;100.00
13612;BME280;6877;51.436;6.774;2023-07-31T03:10:59;100524.25;;;15.38;100.00
13612;BME280;6877;51.436;6.774;2023-07-31T03:13:26;100518.94;;;15.39;100.00
13612;BME280;6877;51.436;6.774;2023-07-31T03:15:52;100516.16;;;15.42;100.00
13612;BME280;6877;51.436;6.774;2023-07-31T03:18:18;100509.16;;;15.41;100.00
13612;BME280;6877;51.436;6.774;2023-07-31T03:20:45;100512.47;;;15.46;100.00
13612;BME280;6877;51.436;6.774;2023-07-31T03:23:16;100510.63;;;15.48;100.00
13612;BME280;6877;51.436;6.774;2023-07-31T03:25:55;100512.34;;;15.49;100.00
13612;BME280;6877;51.436;6.774;2023-07-31T03:28:22;100509.66;;;15.51;100.00
13612;BME280;6877;51.436;6.774;2023-07-31T03:30:54;100510.50;;;15.51;100.00
13612;BME280;6877;51.436;6.774;2023-07-31T03:33:25;100518.19;;;15.56;100.00
13612;BME280;6877;51.436;6.774;2023-07-31T03:35:57;100515.50;;;15.58;100.00
13612;BME280;6877;51.436;6.774;2023-07-31T03:38:23;100506.81;;;15.56;100.00
13612;BME280;6877;51.436;6.774;2023-07-31T03:40:50;100507.59;;;15.58;100.00
13612;BME280;6877;51.436;6.774;2023-07-31T03:43:16;100503.91;;;15.62;100.00
13612;BME280;6877;51.436;6.774;2023-07-31T03:45:43;100505.59;;;15.63;100.00
13612;BME280;6877;51.436;6.774;2023-07-31T03:48:14;100509.88;;;15.67;100.00
13612;BME280;6877;51.436;6.774;2023-07-31T03:50:46;100509.59;;;15.73;100.00
13612;BME280;6877;51.436;6.774;2023-07-31T03:53:18;100506.91;;;15.74;100.00
13612;BME280;6877;51.436;6.774;2023-07-31T03:55:49;100500.63;;;15.77;100.00
13612;BME280;6877;51.436;6.774;2023-07-31T03:58:15;100504.03;;;15.79;100.00
13612;BME280;6877;51.436;6.774;2023-07-31T04:00:47;100498.75;;;15.79;100.00
13612;BME280;6877;51.436;6.774;2023-07-31T04:03:18;100493.31;;;15.84;100.00
13612;BME280;6877;51.436;6.774;2023-07-31T04:05:45;100489.66;;;15.86;100.00
13612;BME280;6877;51.436;6.774;2023-07-31T04:08:16;100493.06;;;15.88;100.00
13612;BME280;6877;51.436;6.774;2023-07-31T04:10:43;100489.53;;;15.89;100.00
13612;BME280;6877;51.436;6.774;2023-07-31T04:13:14;100486.91;;;15.89;100.00
13612;BME280;6877;51.436;6.774;2023-07-31T04:15:41;100491.25;;;15.90;100.00
13612;BME280;6877;51.436;6.774;2023-07-31T04:18:07;100484.25;;;15.89;100.00
13612;BME280;6877;51.436;6.774;2023-07-31T04:20:34;100477.25;;;15.88;100.00
13612;BME280;6877;51.436;6.774;2023-07-31T04:23:00;100477.34;;;15.87;100.00
13612;BME280;6877;51.436;6.774;2023-07-31T04:25:31;100474.69;;;15.87;100.00
13612;BME280;6877;51.436;6.774;2023-07-31T04:27:58;100473.00;;;15.86;100.00
13612;BME280;6877;51.436;6.774;2023-07-31T04:30:29;100465.00;;;15.87;100.00
13612;BME280;6877;51.436;6.774;2023-07-31T04:32:56;100469.31;;;15.88;100.00
13612;BME280;6877;51.436;6.774;2023-07-31T04:35:27;100467.50;;;15.90;100.00
13612;BME280;6877;51.436;6.774;2023-07-31T04:37:59;100457.66;;;15.94;100.00
13612;BME280;6877;51.436;6.774;2023-07-31T04:40:25;100460.16;;;15.97;100.00
13612;BME280;6877;51.436;6.774;2023-07-31T04:42:57;100463.59;;;15.99;100.00
13612;BME280;6877;51.436;6.774;2023-07-31T04:45:23;100467.06;;;15.99;100.00
13612;BME280;6877;51.436;6.774;2023-07-31T04:47:49;100459.88;;;16.03;100.00
13612;BME280;6877;51.436;6.774;2023-07-31T04:50:21;100458.94;;;16.04;100.00
13612;BME280;6877;51.436;6.774;2023-07-31T04:52:47;100462.28;;;16.08;100.00
13612;BME280;6877;51.436;6.774;2023-07-31T04:55:19;100449.88;;;16.10;100.00
13612;BME280;6877;51.436;6.774;2023-07-31T04:57:45;100448.94;;;16.11;100.00
13612;BME280;6877;51.436;6.774;2023-07-31T05:00:17;100440.88;;;16.14;100.00
13612;BME280;6877;51.436;6.774;2023-07-31T05:02:43;100440.75;;;16.17;100.00
13612;BME280;6877;51.436;6.774;2023-07-31T05:05:10;100436.34;;;16.17;100.00
13612;BME280;6877;51.436;6.774;2023-07-31T05:07:36;100435.47;;;16.17;100.00
13612;BME280;6877;51.436;6.774;2023-07-31T05:10:08;100442.47;;;16.18;100.00
13612;BME280;6877;51.436;6.774;2023-07-31T05:12:35;100432.63;;;16.21;100.00
13612;BME280;6877;51.436;6.774;2023-07-31T05:15:01;100435.13;;;16.25;100.00
13612;BME280;6877;51.436;6.774;2023-07-31T05:17:33;100414.63;;;16.30;100.00
13612;BME280;6877;51.436;6.774;2023-07-31T05:19:59;100424.28;;;16.31;100.00
13612;BME280;6877;51.436;6.774;2023-07-31T05:22:31;100422.34;;;16.34;100.00
13612;BME280;6877;51.436;6.774;2023-07-31T05:24:57;100423.88;;;16.38;100.00
13612;BME280;6877;51.436;6.774;2023-07-31T05:27:24;100427.31;;;16.40;100.00
13612;BME280;6877;51.436;6.774;2023-07-31T05:29:50;100419.09;;;16.47;100.00
13612;BME280;6877;51.436;6.774;2023-07-31T05:32:16;100412.88;;;16.48;100.00
13612;BME280;6877;51.436;6.774;2023-07-31T05:34:43;100424.41;;;16.47;100.00
13612;BME280;6877;51.436;6.774;2023-07-31T05:37:14;100428.03;;;16.44;100.00
13612;BME280;6877;51.436;6.774;2023-07-31T05:39:46;100420.25;;;16.41;100.00
13612;BME280;6877;51.436;6.774;2023-07-31T05:42:12;100406.19;;;16.40;100.00
13612;BME280;6877;51.436;6.774;2023-07-31T05:44:38;100414.75;;;16.45;100.00
13612;BME280;6877;51.436;6.774;2023-07-31T05:47:05;100417.31;;;16.47;100.00
13612;BME280;6877;51.436;6.774;2023-07-31T05:49:31;100411.19;;;16.47;100.00
13612;BME280;6877;51.436;6.774;2023-07-31T05:51:58;100417.31;;;16.47;100.00
13612;BME280;6877;51.436;6.774;2023-07-31T05:54:24;100398.97;;;16.44;100.00
13612;BME280;6877;51.436;6.774;2023-07-31T05:56:56;100401.75;;;16.41;100.00
13612;BME280;6877;51.436;6.774;2023-07-31T05:59:22;100399.91;;;16.43;100.00
13612;BME280;6877;51.436;6.774;2023-07-31T06:01:54;100385.63;;;16.47;100.00
13612;BME280;6877;51.436;6.774;2023-07-31T06:04:20;100386.19;;;16.54;100.00
13612;BME280;6877;51.436;6.774;2023-07-31T06:06:46;100384.31;;;16.56;100.00
13612;BME280;6877;51.436;6.774;2023-07-31T06:09:18;100394.66;;;16.60;100.00
13612;BME280;6877;51.436;6.774;2023-07-31T06:11:49;100380.75;;;16.57;100.00
13612;BME280;6877;51.436;6.774;2023-07-31T06:14:16;100386.06;;;16.38;100.00
13612;BME280;6877;51.436;6.774;2023-07-31T06:16:43;100384.41;;;16.18;100.00
13612;BME280;6877;51.436;6.774;2023-07-31T06:19:10;100385.53;;;15.93;100.00
13612;BME280;6877;51.436;6.774;2023-07-31T06:21:41;100383.56;;;15.80;100.00
13612;BME280;6877;51.436;6.774;2023-07-31T06:24:09;100382.94;;;15.73;100.00
13612;BME280;6877;51.436;6.774;2023-07-31T06:26:35;100388.44;;;15.68;100.00
13612;BME280;6877;51.436;6.774;2023-07-31T06:29:02;100389.50;;;15.64;100.00
13612;BME280;6877;51.436;6.774;2023-07-31T06:31:29;100383.38;;;15.64;100.00
13612;BME280;6877;51.436;6.774;2023-07-31T06:34:00;100376.34;;;15.63;100.00
13612;BME280;6877;51.436;6.774;2023-07-31T06:36:26;100374.66;;;15.62;100.00
13612;BME280;6877;51.436;6.774;2023-07-31T06:38:53;100386.13;;;15.61;100.00
13612;BME280;6877;51.436;6.774;2023-07-31T06:41:24;100378.13;;;15.62;100.00
13612;BME280;6877;51.436;6.774;2023-07-31T06:43:51;100381.63;;;15.63;100.00
13612;BME280;6877;51.436;6.774;2023-07-31T06:46:17;100378.09;;;15.64;100.00
13612;BME280;6877;51.436;6.774;2023-07-31T06:48:43;100383.38;;;15.64;100.00
13612;BME280;6877;51.436;6.774;2023-07-31T06:51:15;100385.91;;;15.67;100.00
13612;BME280;6877;51.436;6.774;2023-07-31T06:53:41;100375.22;;;15.70;100.00
13612;BME280;6877;51.436;6.774;2023-07-31T06:56:11;100382.19;;;15.71;100.00
13612;BME280;6877;51.436;6.774;2023-07-31T06:58:37;100381.38;;;15.69;100.00
13612;BME280;6877;51.436;6.774;2023-07-31T07:01:09;100385.91;;;15.67;100.00
13612;BME280;6877;51.436;6.774;2023-07-31T07:03:40;100378.00;;;15.65;100.00
13612;BME280;6877;51.436;6.774;2023-07-31T07:06:07;100380.72;;;15.64;100.00
13612;BME280;6877;51.436;6.774;2023-07-31T07:08:33;100388.63;;;15.64;100.00
13612;BME280;6877;51.436;6.774;2023-07-31T07:11:00;100375.44;;;15.64;100.00
13612;BME280;6877;51.436;6.774;2023-07-31T07:13:26;100380.78;;;15.62;100.00
13612;BME280;6877;51.436;6.774;2023-07-31T07:15:53;100375.44;;;15.64;100.00
13612;BME280;6877;51.436;6.774;2023-07-31T07:18:19;100369.25;;;15.65;100.00
13612;BME280;6877;51.436;6.774;2023-07-31T07:20:49;100365.81;;;15.63;100.00
13612;BME280;6877;51.436;6.774;2023-07-31T07:23:16;100367.72;;;15.59;100.00
13612;BME280;6877;51.436;6.774;2023-07-31T07:25:43;100366.09;;;15.57;100.00
13612;BME280;6877;51.436;6.774;2023-07-31T07:28:10;100363.53;;;15.55;100.00
13612;BME280;6877;51.436;6.774;2023-07-31T07:30:37;100359.31;;;15.51;100.00
13612;BME280;6877;51.436;6.774;2023-07-31T07:33:04;100363.66;;;15.52;100.00
13612;BME280;6877;51.436;6.774;2023-07-31T07:35:33;100356.69;;;15.51;100.00
13612;BME280;6877;51.436;6.774;2023-07-31T07:38:01;100353.03;;;15.53;100.00
13612;BME280;6877;51.436;6.774;2023-07-31T07:40:28;100365.94;;;15.60;100.00
13612;BME280;6877;51.436;6.774;2023-07-31T07:42:54;100359.75;;;15.61;100.00
13612;BME280;6877;51.436;6.774;2023-07-31T07:45:21;100360.03;;;15.55;100.00
13612;BME280;6877;51.436;6.774;2023-07-31T07:47:47;100370.72;;;15.51;100.00
13612;BME280;6877;51.436;6.774;2023-07-31T07:50:14;100362.81;;;15.51;100.00
13612;BME280;6877;51.436;6.774;2023-07-31T07:52:45;100350.53;;;15.50;100.00
13612;BME280;6877;51.436;6.774;2023-07-31T07:55:12;100354.19;;;15.48;100.00
13612;BME280;6877;51.436;6.774;2023-07-31T07:57:38;100347.41;;;15.42;100.00
13612;BME280;6877;51.436;6.774;2023-07-31T08:00:06;100363.38;;;15.39;100.00
13612;BME280;6877;51.436;6.774;2023-07-31T08:02:37;100354.53;;;15.40;100.00
13612;BME280;6877;51.436;6.774;2023-07-31T08:05:04;100354.19;;;15.48;100.00
13612;BME280;6877;51.436;6.774;2023-07-31T08:07:30;100348.31;;;15.60;100.00
13612;BME280;6877;51.436;6.774;2023-07-31T08:10:03;100341.53;;;15.75;100.00
13612;BME280;6877;51.436;6.774;2023-07-31T08:12:35;100345.41;;;15.66;100.00
13612;BME280;6877;51.436;6.774;2023-07-31T08:15:01;100343.94;;;15.61;100.00
13612;BME280;6877;51.436;6.774;2023-07-31T08:17:28;100339.66;;;15.58;100.00
13612;BME280;6877;51.436;6.774;2023-07-31T08:19:59;100341.44;;;15.58;100.00
13612;BME280;6877;51.436;6.774;2023-07-31T08:22:26;100335.59;;;15.51;100.00
13612;BME280;6877;51.436;6.774;2023-07-31T08:24:52;100334.00;;;15.47;100.00
13612;BME280;6877;51.436;6.774;2023-07-31T08:27:24;100340.41;;;15.41;100.00
13612;BME280;6877;51.436;6.774;2023-07-31T08:29:55;100329.28;;;15.35;100.00
13612;BME280;6877;51.436;6.774;2023-07-31T08:32:22;100331.06;;;15.34;100.00
13612;BME280;6877;51.436;6.774;2023-07-31T08:34:48;100331.00;;;15.36;100.00
13612;BME280;6877;51.436;6.774;2023-07-31T08:37:20;100329.00;;;15.41;100.00
13612;BME280;6877;51.436;6.774;2023-07-31T08:39:51;100327.16;;;15.43;100.00
13612;BME280;6877;51.436;6.774;2023-07-31T08:42:23;100331.72;;;15.39;100.00
13612;BME280;6877;51.436;6.774;2023-07-31T08:44:57;100328.22;;;15.39;100.00
13612;BME280;6877;51.436;6.774;2023-07-31T08:47:26;100332.63;;;15.38;100.00
13612;BME280;6877;51.436;6.774;2023-07-31T08:49:58;100337.75;;;15.41;100.00
13612;BME280;6877;51.436;6.774;2023-07-31T08:52:26;100335.78;;;15.46;100.00
13612;BME280;6877;51.436;6.774;2023-07-31T08:54:52;100335.78;;;15.46;100.00
13612;BME280;6877;51.436;6.774;2023-07-31T08:57:24;100334.28;;;15.41;100.00
13612;BME280;6877;51.436;6.774;2023-07-31T08:59:50;100335.41;;;15.35;100.00
13612;BME280;6877;51.436;6.774;2023-07-31T09:02:24;100344.38;;;15.31;100.00
13612;BME280;6877;51.436;6.774;2023-07-31T09:05:01;100334.69;;;15.32;100.00
13612;BME280;6877;51.436;6.774;2023-07-31T09:07:30;100334.81;;;15.28;100.00
13612;BME280;6877;51.436;6.774;2023-07-31T09:09:57;100329.53;;;15.28;100.00
13612;BME280;6877;51.436;6.774;2023-07-31T09:12:25;100334.69;;;15.32;100.00
13612;BME280;6877;51.436;6.774;2023-07-31T09:14:57;100338.91;;;15.36;100.00
13612;BME280;6877;51.436;6.774;2023-07-31T09:17:35;100339.63;;;15.39;100.00
13612;BME280;6877;51.436;6.774;2023-07-31T09:20:15;100326.81;;;15.50;100.00
13612;BME280;6877;51.436;6.774;2023-07-31T09:22:48;100332.59;;;15.59;100.00
13612;BME280;6877;51.436;6.774;2023-07-31T09:25:17;100321.75;;;15.65;100.00
13612;BME280;6877;51.436;6.774;2023-07-31T09:28:09;100326.78;;;15.71;100.00
13612;BME280;6877;51.436;6.774;2023-07-31T09:30:49;100319.63;;;15.73;100.00
13612;BME280;6877;51.436;6.774;2023-07-31T09:33:16;100319.63;;;15.73;100.00
13612;BME280;6877;51.436;6.774;2023-07-31T09:35:47;100319.22;;;15.82;100.00
13612;BME280;6877;51.436;6.774;2023-07-31T09:38:19;100308.38;;;15.88;100.00
13612;BME280;6877;51.436;6.774;2023-07-31T09:40:47;100314.72;;;15.84;100.00
13612;BME280;6877;51.436;6.774;2023-07-31T09:43:18;100317.22;;;15.87;100.00
13612;BME280;6877;51.436;6.774;2023-07-31T09:45:55;100318.00;;;15.89;100.00
13612;BME280;6877;51.436;6.774;2023-07-31T09:48:23;100310.25;;;15.86;100.00
13612;BME280;6877;51.436;6.774;2023-07-31T09:50:52;100315.44;;;15.88;100.00
13612;BME280;6877;51.436;6.774;2023-07-31T09:53:19;100304.66;;;15.92;100.00
13612;BME280;6877;51.436;6.774;2023-07-31T09:55:45;100306.22;;;15.96;100.00
13612;BME280;6877;51.436;6.774;2023-07-31T09:58:12;100302.75;;;15.96;100.00
13612;BME280;6877;51.436;6.774;2023-07-31T10:00:44;100311.50;;;15.96;100.00
13612;BME280;6877;51.436;6.774;2023-07-31T10:03:16;100307.06;;;15.97;100.00
13612;BME280;6877;51.436;6.774;2023-07-31T10:05:46;100304.44;;;15.97;100.00
13612;BME280;6877;51.436;6.774;2023-07-31T10:08:17;100306.38;;;15.93;100.00
13612;BME280;6877;51.436;6.774;2023-07-31T10:10:49;100305.44;;;15.94;100.00
13612;BME280;6877;51.436;6.774;2023-07-31T10:13:21;100306.09;;;15.99;100.00
13612;BME280;6877;51.436;6.774;2023-07-31T10:15:54;100300.50;;;16.06;100.00
13612;BME280;6877;51.436;6.774;2023-07-31T10:18:26;100299.88;;;16.01;100.00
13612;BME280;6877;51.436;6.774;2023-07-31T10:20:54;100304.84;;;16.07;100.00
13612;BME280;6877;51.436;6.774;2023-07-31T10:23:26;100311.06;;;16.06;100.00
13612;BME280;6877;51.436;6.774;2023-07-31T10:25:53;100300.56;;;16.04;100.00
13612;BME280;6877;51.436;6.774;2023-07-31T10:28:21;100303.28;;;16.03;100.00
13612;BME280;6877;51.436;6.774;2023-07-31T10:30:48;100301.34;;;16.06;100.00
13612;BME280;6877;51.436;6.774;2023-07-31T10:33:21;100303.41;;;16.18;100.00
13612;BME280;6877;51.436;6.774;2023-07-31T10:35:48;100306.00;;;16.37;100.00
13612;BME280;6877;51.436;6.774;2023-07-31T10:38:24;100305.09;;;16.56;100.00
13612;BME280;6877;51.436;6.774;2023-07-31T10:40:51;100303.69;;;16.66;100.00
13612;BME280;6877;51.436;6.774;2023-07-31T10:43:24;100292.56;;;16.77;100.00
13612;BME280;6877;51.436;6.774;2023-07-31T10:45:59;100299.97;;;16.87;100.00
13612;BME280;6877;51.436;6.774;2023-07-31T10:48:33;100296.00;;;16.96;100.00
13612;BME280;6877;51.436;6.774;2023-07-31T10:51:00;100300.03;;;17.03;100.00
13612;BME280;6877;51.436;6.774;2023-07-31T10:53:29;100289.88;;;17.11;100.00
13612;BME280;6877;51.436;6.774;2023-07-31T10:56:14;100294.78;;;17.19;100.00
13612;BME280;6877;51.436;6.774;2023-07-31T10:58:45;100291.88;;;17.24;100.00
13612;BME280;6877;51.436;6.774;2023-07-31T11:01:19;100289.00;;;17.28;100.00
13612;BME280;6877;51.436;6.774;2023-07-31T11:03:50;100285.09;;;17.35;100.00
13612;BME280;6877;51.436;6.774;2023-07-31T11:06:29;100287.88;;;17.32;100.00
13612;BME280;6877;51.436;6.774;2023-07-31T11:09:00;100279.00;;;17.33;100.00
13612;BME280;6877;51.436;6.774;2023-07-31T11:11:33;100279.88;;;17.34;100.00
13612;BME280;6877;51.436;6.774;2023-07-31T11:13:59;100280.31;;;17.42;100.00
13612;BME280;6877;51.436;6.774;2023-07-31T11:16:26;100280.75;;;17.50;100.00
13612;BME280;6877;51.436;6.774;2023-07-31T11:18:54;100290.91;;;17.58;100.00
13612;BME280;6877;51.436;6.774;2023-07-31T11:21:28;100293.84;;;17.69;100.00
13612;BME280;6877;51.436;6.774;2023-07-31T11:23:59;100290.59;;;17.80;100.00
13612;BME280;6877;51.436;6.774;2023-07-31T11:26:31;100287.53;;;18.03;100.00
13612;BME280;6877;51.436;6.774;2023-07-31T11:28:57;100291.94;;;18.19;100.00
13612;BME280;6877;51.436;6.774;2023-07-31T11:31:24;100290.50;;;18.13;100.00
13612;BME280;6877;51.436;6.774;2023-07-31T11:33:50;100284.88;;;18.03;100.00
13612;BME280;6877;51.436;6.774;2023-07-31T11:36:18;100282.66;;;17.96;100.00
13612;BME280;6877;51.436;6.774;2023-07-31T11:38:45;100279.78;;;17.85;100.00
13612;BME280;6877;51.436;6.774;2023-07-31T11:41:14;100280.00;;;17.64;100.00
13612;BME280;6877;51.436;6.774;2023-07-31T11:43:42;100281.50;;;17.52;100.00
13612;BME280;6877;51.436;6.774;2023-07-31T11:46:09;100288.41;;;17.39;100.00
13612;BME280;6877;51.436;6.774;2023-07-31T11:48:40;100286.25;;;17.30;100.00
13612;BME280;6877;51.436;6.774;2023-07-31T11:51:09;100287.59;;;17.21;100.00
13612;BME280;6877;51.436;6.774;2023-07-31T11:53:44;100287.97;;;17.15;100.00
13612;BME280;6877;51.436;6.774;2023-07-31T11:56:18;100281.09;;;17.11;100.00
13612;BME280;6877;51.436;6.774;2023-07-31T11:58:59;100283.53;;;16.98;100.00
13612;BME280;6877;51.436;6.774;2023-07-31T12:01:28;100279.25;;;16.96;100.00
13612;BME280;6877;51.436;6.774;2023-07-31T12:03:56;100275.88;;;16.94;100.00
13612;BME280;6877;51.436;6.774;2023-07-31T12:06:33;100284.13;;;16.87;100.00
13612;BME280;6877;51.436;6.774;2023-07-31T12:09:05;100282.72;;;16.80;100.00
13612;BME280;6877;51.436;6.774;2023-07-31T12:11:42;100277.59;;;16.77;100.00
13612;BME280;6877;51.436;6.774;2023-07-31T12:14:20;100276.00;;;16.73;100.00
13612;BME280;6877;51.436;6.774;2023-07-31T12:16:46;100275.88;;;16.76;100.00
13612;BME280;6877;51.436;6.774;2023-07-31T12:19:19;100270.44;;;16.79;100.00
13612;BME280;6877;51.436;6.774;2023-07-31T12:21:45;100266.47;;;16.88;100.00
13612;BME280;6877;51.436;6.774;2023-07-31T12:24:18;100250.91;;;16.99;100.00
13612;BME280;6877;51.436;6.774;2023-07-31T12:26:45;100259.47;;;17.20;100.00
13612;BME280;6877;51.436;6.774;2023-07-31T12:29:13;100261.00;;;17.40;100.00
13612;BME280;6877;51.436;6.774;2023-07-31T12:31:41;100248.22;;;17.64;100.00
13612;BME280;6877;51.436;6.774;2023-07-31T12:34:18;100257.03;;;17.96;100.00
13612;BME280;6877;51.436;6.774;2023-07-31T12:36:45;100256.94;;;18.14;100.00
13612;BME280;6877;51.436;6.774;2023-07-31T12:39:16;100256.25;;;18.10;100.00
13612;BME280;6877;51.436;6.774;2023-07-31T12:41:48;100263.94;;;17.99;100.00
13612;BME280;6877;51.436;6.774;2023-07-31T12:44:19;100259.53;;;17.83;100.00
13612;BME280;6877;51.436;6.774;2023-07-31T12:46:50;100254.56;;;17.77;100.00
13612;BME280;6877;51.436;6.774;2023-07-31T12:49:17;100249.41;;;17.74;100.00
13612;BME280;6877;51.436;6.774;2023-07-31T12:51:48;100255.94;;;17.69;100.00
13612;BME280;6877;51.436;6.774;2023-07-31T12:54:15;100254.38;;;17.65;100.00
13612;BME280;6877;51.436;6.774;2023-07-31T12:56:41;100242.44;;;17.57;100.00
13612;BME280;6877;51.436;6.774;2023-07-31T12:59:13;100245.41;;;17.51;100.00
13612;BME280;6877;51.436;6.774;2023-07-31T13:01:40;100234.06;;;17.49;100.00
13612;BME280;6877;51.436;6.774;2023-07-31T13:04:11;100224.19;;;17.53;100.00
13612;BME280;6877;51.436;6.774;2023-07-31T13:06:43;100221.59;;;17.67;100.00
13612;BME280;6877;51.436;6.774;2023-07-31T13:09:09;100220.00;;;17.80;100.00